sensor_id;sensor_type;location;lat;lon;timestamp;P1;durP1;ratioP1;P2;durP2;ratioP2
46491;SDS011;32206;51.446;6.792;2023-09-08T00:01:18;3.92;;;2.45;;
46491;SDS011;32206;51.446;6.792;2023-09-08T00:03:44;4.20;;;3.20;;
46491;SDS011;32206;51.446;6.792;2023-09-08T00:06:10;3.50;;;3.17;;
46491;SDS011;32206;51.446;6.792;2023-09-08T00:08:36;3.38;;;3.10;;
46491;SDS011;32206;51.446;6.792;2023-09-08T00:11:01;3.90;;;3.60;;
46491;SDS011;32206;51.446;6.792;2023-09-08T00:13:27;4.03;;;3.08;;
46491;SDS011;32206;51.446;6.792;2023-09-08T00:15:53;5.20;;;3.35;;
46491;SDS011;32206;51.446;6.792;2023-09-08T00:18:18;4.25;;;2.80;;
46491;SDS011;32206;51.446;6.792;2023-09-08T00:20:44;3.40;;;3.10;;
46491;SDS011;32206;51.446;6.792;2023-09-08T00:23:09;6.35;;;2.72;;
46491;SDS011;32206;51.446;6.792;2023-09-08T00:25:35;3.47;;;3.15;;
46491;SDS011;32206;51.446;6.792;2023-09-08T00:28:01;7.00;;;3.20;;
46491;SDS011;32206;51.446;6.792;2023-09-08T00:30:28;3.45;;;3.15;;
46491;SDS011;32206;51.446;6.792;2023-09-08T00:32:53;6.55;;;3.17;;
46491;SDS011;32206;51.446;6.792;2023-09-08T00:35:19;5.10;;;3.70;;
46491;SDS011;32206;51.446;6.792;2023-09-08T00:37:45;3.97;;;3.35;;
46491;SDS011;32206;51.446;6.792;2023-09-08T00:40:10;3.65;;;3.35;;
46491;SDS011;32206;51.446;6.792;2023-09-08T00:42:36;3.60;;;3.30;;
46491;SDS011;32206;51.446;6.792;2023-09-08T00:45:02;3.30;;;3.00;;
46491;SDS011;32206;51.446;6.792;2023-09-08T00:47:28;4.07;;;2.88;;
46491;SDS011;32206;51.446;6.792;2023-09-08T00:53:29;8.43;;;3.72;;
46491;SDS011;32206;51.446;6.792;2023-09-08T00:55:55;4.68;;;3.83;;
46491;SDS011;32206;51.446;6.792;2023-09-08T00:58:22;3.60;;;3.30;;
46491;SDS011;32206;51.446;6.792;2023-09-08T01:00:48;3.97;;;2.95;;
46491;SDS011;32206;51.446;6.792;2023-09-08T01:03:14;9.00;;;3.33;;
46491;SDS011;32206;51.446;6.792;2023-09-08T01:05:39;3.95;;;2.85;;
46491;SDS011;32206;51.446;6.792;2023-09-08T01:08:06;4.03;;;3.03;;
46491;SDS011;32206;51.446;6.792;2023-09-08T01:10:32;5.10;;;3.42;;
46491;SDS011;32206;51.446;6.792;2023-09-08T01:13:00;4.00;;;3.03;;
46491;SDS011;32206;51.446;6.792;2023-09-08T01:15:26;6.70;;;3.20;;
46491;SDS011;32206;51.446;6.792;2023-09-08T01:17:51;5.07;;;3.33;;
46491;SDS011;32206;51.446;6.792;2023-09-08T01:20:18;7.88;;;3.40;;
46491;SDS011;32206;51.446;6.792;2023-09-08T01:25:35;5.70;;;3.97;;
46491;SDS011;32206;51.446;6.792;2023-09-08T01:28:22;6.90;;;3.28;;
46491;SDS011;32206;51.446;6.792;2023-09-08T01:30:48;4.38;;;3.20;;
46491;SDS011;32206;51.446;6.792;2023-09-08T01:33:15;5.53;;;3.40;;
46491;SDS011;32206;51.446;6.792;2023-09-08T01:35:41;9.40;;;3.30;;
46491;SDS011;32206;51.446;6.792;2023-09-08T01:38:07;7.05;;;3.10;;
46491;SDS011;32206;51.446;6.792;2023-09-08T01:40:33;5.05;;;3.40;;
46491;SDS011;32206;51.446;6.792;2023-09-08T01:42:59;3.22;;;2.92;;
46491;SDS011;32206;51.446;6.792;2023-09-08T01:45:25;4.63;;;3.20;;
46491;SDS011;32206;51.446;6.792;2023-09-08T01:47:51;5.07;;;3.80;;
46491;SDS011;32206;51.446;6.792;2023-09-08T01:50:16;4.00;;;3.70;;
46491;SDS011;32206;51.446;6.792;2023-09-08T01:52:46;4.25;;;3.22;;
46491;SDS011;32206;51.446;6.792;2023-09-08T01:55:12;4.05;;;3.40;;
46491;SDS011;32206;51.446;6.792;2023-09-08T01:57:38;3.95;;;3.63;;
46491;SDS011;32206;51.446;6.792;2023-09-08T02:00:18;4.82;;;3.50;;
46491;SDS011;32206;51.446;6.792;2023-09-08T02:02:44;7.53;;;3.78;;
46491;SDS011;32206;51.446;6.792;2023-09-08T02:05:10;6.32;;;3.88;;
46491;SDS011;32206;51.446;6.792;2023-09-08T02:07:35;13.27;;;3.97;;
46491;SDS011;32206;51.446;6.792;2023-09-08T02:10:01;3.70;;;3.40;;
46491;SDS011;32206;51.446;6.792;2023-09-08T02:12:27;7.80;;;4.30;;
46491;SDS011;32206;51.446;6.792;2023-09-08T02:14:52;4.30;;;3.90;;
46491;SDS011;32206;51.446;6.792;2023-09-08T02:17:18;5.75;;;4.03;;
46491;SDS011;32206;51.446;6.792;2023-09-08T02:26:09;4.38;;;4.03;;
46491;SDS011;32206;51.446;6.792;2023-09-08T02:28:35;3.90;;;3.30;;
46491;SDS011;32206;51.446;6.792;2023-09-08T02:31:01;3.78;;;3.45;;
46491;SDS011;32206;51.446;6.792;2023-09-08T02:33:27;3.83;;;3.50;;
46491;SDS011;32206;51.446;6.792;2023-09-08T02:35:53;4.43;;;3.28;;
46491;SDS011;32206;51.446;6.792;2023-09-08T02:38:19;4.18;;;3.50;;
46491;SDS011;32206;51.446;6.792;2023-09-08T02:40:44;3.70;;;3.38;;
46491;SDS011;32206;51.446;6.792;2023-09-08T02:43:10;4.32;;;3.92;;
46491;SDS011;32206;51.446;6.792;2023-09-08T02:45:36;5.07;;;3.50;;
46491;SDS011;32206;51.446;6.792;2023-09-08T02:48:01;3.80;;;3.47;;
46491;SDS011;32206;51.446;6.792;2023-09-08T02:50:27;3.72;;;3.42;;
46491;SDS011;32206;51.446;6.792;2023-09-08T02:52:52;10.73;;;4.88;;
46491;SDS011;32206;51.446;6.792;2023-09-08T02:55:18;5.35;;;3.53;;
46491;SDS011;32206;51.446;6.792;2023-09-08T02:57:44;5.65;;;4.28;;
46491;SDS011;32206;51.446;6.792;2023-09-08T03:00:09;4.82;;;4.38;;
46491;SDS011;32206;51.446;6.792;2023-09-08T03:02:35;5.57;;;3.80;;
46491;SDS011;32206;51.446;6.792;2023-09-08T03:05:01;4.82;;;3.83;;
46491;SDS011;32206;51.446;6.792;2023-09-08T03:07:27;4.38;;;3.90;;
46491;SDS011;32206;51.446;6.792;2023-09-08T03:09:53;4.55;;;3.85;;
46491;SDS011;32206;51.446;6.792;2023-09-08T03:15:34;7.05;;;4.03;;
46491;SDS011;32206;51.446;6.792;2023-09-08T03:17:59;7.43;;;4.30;;
46491;SDS011;32206;51.446;6.792;2023-09-08T03:20:25;7.97;;;4.00;;
46491;SDS011;32206;51.446;6.792;2023-09-08T03:22:51;14.43;;;4.18;;
46491;SDS011;32206;51.446;6.792;2023-09-08T03:25:17;8.55;;;3.80;;
46491;SDS011;32206;51.446;6.792;2023-09-08T03:27:43;5.28;;;4.30;;
46491;SDS011;32206;51.446;6.792;2023-09-08T03:30:09;4.45;;;4.05;;
46491;SDS011;32206;51.446;6.792;2023-09-08T03:32:35;7.10;;;4.65;;
46491;SDS011;32206;51.446;6.792;2023-09-08T03:35:20;6.07;;;4.65;;
46491;SDS011;32206;51.446;6.792;2023-09-08T03:37:46;9.68;;;4.65;;
46491;SDS011;32206;51.446;6.792;2023-09-08T03:40:12;5.20;;;4.20;;
46491;SDS011;32206;51.446;6.792;2023-09-08T03:42:37;14.55;;;7.50;;
46491;SDS011;32206;51.446;6.792;2023-09-08T03:45:03;8.52;;;4.35;;
46491;SDS011;32206;51.446;6.792;2023-09-08T03:47:29;8.13;;;6.68;;
46491;SDS011;32206;51.446;6.792;2023-09-08T03:49:55;6.65;;;4.28;;
46491;SDS011;32206;51.446;6.792;2023-09-08T03:52:20;4.35;;;3.95;;
46491;SDS011;32206;51.446;6.792;2023-09-08T03:54:46;4.80;;;3.97;;
46491;SDS011;32206;51.446;6.792;2023-09-08T03:57:11;5.72;;;3.83;;
46491;SDS011;32206;51.446;6.792;2023-09-08T03:59:37;7.75;;;4.07;;
46491;SDS011;32206;51.446;6.792;2023-09-08T04:02:03;7.00;;;4.40;;
46491;SDS011;32206;51.446;6.792;2023-09-08T04:04:28;11.55;;;5.97;;
46491;SDS011;32206;51.446;6.792;2023-09-08T04:06:54;10.32;;;4.47;;
46491;SDS011;32206;51.446;6.792;2023-09-08T04:09:19;9.05;;;4.43;;
46491;SDS011;32206;51.446;6.792;2023-09-08T04:11:45;9.27;;;4.32;;
46491;SDS011;32206;51.446;6.792;2023-09-08T04:14:11;9.15;;;4.55;;
46491;SDS011;32206;51.446;6.792;2023-09-08T04:16:36;10.73;;;4.70;;
46491;SDS011;32206;51.446;6.792;2023-09-08T04:19:02;8.40;;;4.47;;
46491;SDS011;32206;51.446;6.792;2023-09-08T04:21:28;7.50;;;4.35;;
46491;SDS011;32206;51.446;6.792;2023-09-08T04:30:06;8.13;;;4.78;;
46491;SDS011;32206;51.446;6.792;2023-09-08T04:35:45;8.27;;;4.68;;
46491;SDS011;32206;51.446;6.792;2023-09-08T04:38:11;11.65;;;5.25;;
46491;SDS011;32206;51.446;6.792;2023-09-08T04:40:40;7.32;;;5.38;;
46491;SDS011;32206;51.446;6.792;2023-09-08T04:43:06;8.77;;;4.95;;
46491;SDS011;32206;51.446;6.792;2023-09-08T04:45:32;6.63;;;4.93;;
46491;SDS011;32206;51.446;6.792;2023-09-08T04:47:58;6.78;;;4.38;;
46491;SDS011;32206;51.446;6.792;2023-09-08T04:50:23;10.95;;;4.82;;
46491;SDS011;32206;51.446;6.792;2023-09-08T04:52:49;12.25;;;5.20;;
46491;SDS011;32206;51.446;6.792;2023-09-08T04:55:15;10.00;;;4.60;;
46491;SDS011;32206;51.446;6.792;2023-09-08T04:57:41;9.23;;;5.15;;
46491;SDS011;32206;51.446;6.792;2023-09-08T05:00:07;6.72;;;4.18;;
46491;SDS011;32206;51.446;6.792;2023-09-08T05:02:33;12.00;;;5.72;;
46491;SDS011;32206;51.446;6.792;2023-09-08T05:04:59;7.75;;;5.10;;
46491;SDS011;32206;51.446;6.792;2023-09-08T05:07:25;10.07;;;5.38;;
46491;SDS011;32206;51.446;6.792;2023-09-08T05:09:50;8.70;;;4.72;;
46491;SDS011;32206;51.446;6.792;2023-09-08T05:12:16;8.57;;;5.53;;
46491;SDS011;32206;51.446;6.792;2023-09-08T05:14:42;5.75;;;4.47;;
46491;SDS011;32206;51.446;6.792;2023-09-08T05:17:07;8.90;;;5.18;;
46491;SDS011;32206;51.446;6.792;2023-09-08T05:19:33;11.98;;;5.22;;
46491;SDS011;32206;51.446;6.792;2023-09-08T05:21:59;14.13;;;5.18;;
46491;SDS011;32206;51.446;6.792;2023-09-08T05:27:47;10.70;;;4.93;;
46491;SDS011;32206;51.446;6.792;2023-09-08T05:30:14;12.30;;;5.75;;
46491;SDS011;32206;51.446;6.792;2023-09-08T05:32:39;13.98;;;4.80;;
46491;SDS011;32206;51.446;6.792;2023-09-08T05:35:05;15.07;;;5.60;;
46491;SDS011;32206;51.446;6.792;2023-09-08T05:37:31;16.95;;;5.47;;
46491;SDS011;32206;51.446;6.792;2023-09-08T05:39:56;12.57;;;5.85;;
46491;SDS011;32206;51.446;6.792;2023-09-08T05:42:22;13.60;;;5.25;;
46491;SDS011;32206;51.446;6.792;2023-09-08T05:44:47;11.07;;;5.40;;
46491;SDS011;32206;51.446;6.792;2023-09-08T05:47:13;11.60;;;5.88;;
46491;SDS011;32206;51.446;6.792;2023-09-08T05:49:39;9.15;;;5.18;;
46491;SDS011;32206;51.446;6.792;2023-09-08T05:52:05;16.02;;;5.65;;
46491;SDS011;32206;51.446;6.792;2023-09-08T05:54:31;16.08;;;6.05;;
46491;SDS011;32206;51.446;6.792;2023-09-08T05:56:56;10.55;;;5.38;;
46491;SDS011;32206;51.446;6.792;2023-09-08T05:59:22;12.60;;;5.90;;
46491;SDS011;32206;51.446;6.792;2023-09-08T06:01:47;14.13;;;5.63;;
46491;SDS011;32206;51.446;6.792;2023-09-08T06:07:38;15.18;;;6.50;;
46491;SDS011;32206;51.446;6.792;2023-09-08T06:10:04;8.43;;;5.75;;
46491;SDS011;32206;51.446;6.792;2023-09-08T06:12:30;9.00;;;5.28;;
46491;SDS011;32206;51.446;6.792;2023-09-08T06:14:56;14.07;;;5.85;;
46491;SDS011;32206;51.446;6.792;2023-09-08T06:17:21;16.73;;;5.85;;
46491;SDS011;32206;51.446;6.792;2023-09-08T06:19:47;7.80;;;5.38;;
46491;SDS011;32206;51.446;6.792;2023-09-08T06:22:13;11.15;;;5.68;;
46491;SDS011;32206;51.446;6.792;2023-09-08T06:28:00;12.85;;;5.53;;
46491;SDS011;32206;51.446;6.792;2023-09-08T06:30:26;13.77;;;5.90;;
46491;SDS011;32206;51.446;6.792;2023-09-08T06:32:51;11.00;;;6.45;;
46491;SDS011;32206;51.446;6.792;2023-09-08T06:35:17;14.65;;;6.03;;
46491;SDS011;32206;51.446;6.792;2023-09-08T06:37:43;9.15;;;5.22;;
46491;SDS011;32206;51.446;6.792;2023-09-08T06:40:08;14.88;;;6.03;;
46491;SDS011;32206;51.446;6.792;2023-09-08T06:42:34;13.55;;;6.30;;
46491;SDS011;32206;51.446;6.792;2023-09-08T06:54:35;9.98;;;5.47;;
46491;SDS011;32206;51.446;6.792;2023-09-08T06:57:00;13.65;;;6.10;;
46491;SDS011;32206;51.446;6.792;2023-09-08T06:59:26;7.82;;;5.80;;
46491;SDS011;32206;51.446;6.792;2023-09-08T07:01:51;10.43;;;7.05;;
46491;SDS011;32206;51.446;6.792;2023-09-08T07:11:01;14.88;;;6.13;;
46491;SDS011;32206;51.446;6.792;2023-09-08T07:13:27;13.63;;;5.90;;
46491;SDS011;32206;51.446;6.792;2023-09-08T07:15:53;16.17;;;5.63;;
46491;SDS011;32206;51.446;6.792;2023-09-08T07:18:18;16.60;;;5.95;;
46491;SDS011;32206;51.446;6.792;2023-09-08T07:20:47;10.18;;;5.28;;
46491;SDS011;32206;51.446;6.792;2023-09-08T07:23:13;8.63;;;6.22;;
46491;SDS011;32206;51.446;6.792;2023-09-08T07:32:07;12.07;;;6.03;;
46491;SDS011;32206;51.446;6.792;2023-09-08T07:34:33;16.20;;;5.47;;
46491;SDS011;32206;51.446;6.792;2023-09-08T07:37:00;12.73;;;5.20;;
46491;SDS011;32206;51.446;6.792;2023-09-08T07:39:26;5.85;;;5.05;;
46491;SDS011;32206;51.446;6.792;2023-09-08T07:41:51;8.20;;;3.83;;
46491;SDS011;32206;51.446;6.792;2023-09-08T07:44:18;3.65;;;3.30;;
46491;SDS011;32206;51.446;6.792;2023-09-08T07:46:44;4.68;;;3.28;;
46491;SDS011;32206;51.446;6.792;2023-09-08T07:49:11;4.72;;;3.10;;
46491;SDS011;32206;51.446;6.792;2023-09-08T07:51:36;3.85;;;2.92;;
46491;SDS011;32206;51.446;6.792;2023-09-08T07:54:02;5.30;;;2.95;;
46491;SDS011;32206;51.446;6.792;2023-09-08T07:56:29;3.25;;;2.60;;
46491;SDS011;32206;51.446;6.792;2023-09-08T08:08:39;4.65;;;2.58;;
46491;SDS011;32206;51.446;6.792;2023-09-08T08:14:27;3.83;;;2.35;;
46491;SDS011;32206;51.446;6.792;2023-09-08T08:16:53;13.35;;;3.53;;
46491;SDS011;32206;51.446;6.792;2023-09-08T08:19:18;3.33;;;2.53;;
46491;SDS011;32206;51.446;6.792;2023-09-08T08:21:44;4.20;;;2.95;;
46491;SDS011;32206;51.446;6.792;2023-09-08T08:34:16;2.97;;;2.45;;
46491;SDS011;32206;51.446;6.792;2023-09-08T08:36:42;3.20;;;2.45;;
46491;SDS011;32206;51.446;6.792;2023-09-08T08:39:07;6.72;;;2.60;;
46491;SDS011;32206;51.446;6.792;2023-09-08T08:41:33;3.25;;;2.95;;
46491;SDS011;32206;51.446;6.792;2023-09-08T08:44:03;6.15;;;2.75;;
46491;SDS011;32206;51.446;6.792;2023-09-08T08:46:30;2.47;;;2.17;;
46491;SDS011;32206;51.446;6.792;2023-09-08T08:56:01;3.38;;;2.17;;
46491;SDS011;32206;51.446;6.792;2023-09-08T08:58:28;2.55;;;2.13;;
46491;SDS011;32206;51.446;6.792;2023-09-08T09:00:54;7.13;;;2.60;;
46491;SDS011;32206;51.446;6.792;2023-09-08T09:03:21;3.25;;;2.25;;
46491;SDS011;32206;51.446;6.792;2023-09-08T09:05:51;5.40;;;2.40;;
46491;SDS011;32206;51.446;6.792;2023-09-08T09:08:17;2.50;;;2.28;;
46491;SDS011;32206;51.446;6.792;2023-09-08T09:14:06;3.03;;;2.83;;
46491;SDS011;32206;51.446;6.792;2023-09-08T09:16:38;7.55;;;2.50;;
46491;SDS011;32206;51.446;6.792;2023-09-08T09:19:07;3.53;;;2.58;;
46491;SDS011;32206;51.446;6.792;2023-09-08T09:34:12;2.42;;;2.20;;
46491;SDS011;32206;51.446;6.792;2023-09-08T09:36:39;5.72;;;2.83;;
46491;SDS011;32206;51.446;6.792;2023-09-08T09:39:07;6.47;;;3.03;;
46491;SDS011;32206;51.446;6.792;2023-09-08T09:41:33;8.82;;;2.40;;
46491;SDS011;32206;51.446;6.792;2023-09-08T09:43:59;3.30;;;2.80;;
46491;SDS011;32206;51.446;6.792;2023-09-08T09:46:27;7.10;;;2.67;;
46491;SDS011;32206;51.446;6.792;2023-09-08T09:48:54;7.75;;;2.40;;
46491;SDS011;32206;51.446;6.792;2023-09-08T09:51:21;4.32;;;2.67;;
46491;SDS011;32206;51.446;6.792;2023-09-08T09:53:49;4.25;;;2.15;;
46491;SDS011;32206;51.446;6.792;2023-09-08T09:56:16;3.92;;;2.60;;
46491;SDS011;32206;51.446;6.792;2023-09-08T09:58:43;5.13;;;2.45;;
46491;SDS011;32206;51.446;6.792;2023-09-08T10:01:10;3.15;;;2.78;;
46491;SDS011;32206;51.446;6.792;2023-09-08T10:03:38;3.13;;;2.58;;
46491;SDS011;32206;51.446;6.792;2023-09-08T10:06:04;4.07;;;2.67;;
46491;SDS011;32206;51.446;6.792;2023-09-08T10:08:31;3.17;;;2.63;;
46491;SDS011;32206;51.446;6.792;2023-09-08T10:11:02;3.17;;;2.55;;
46491;SDS011;32206;51.446;6.792;2023-09-08T10:13:31;7.90;;;2.83;;
46491;SDS011;32206;51.446;6.792;2023-09-08T10:16:10;2.35;;;2.10;;
46491;SDS011;32206;51.446;6.792;2023-09-08T10:18:41;4.60;;;2.88;;
46491;SDS011;32206;51.446;6.792;2023-09-08T10:27:53;3.13;;;2.80;;
46491;SDS011;32206;51.446;6.792;2023-09-08T10:30:19;3.28;;;2.53;;
46491;SDS011;32206;51.446;6.792;2023-09-08T10:32:46;9.85;;;2.72;;
46491;SDS011;32206;51.446;6.792;2023-09-08T10:35:14;2.90;;;2.70;;
46491;SDS011;32206;51.446;6.792;2023-09-08T10:37:42;3.97;;;3.15;;
46491;SDS011;32206;51.446;6.792;2023-09-08T10:40:29;5.82;;;2.72;;
46491;SDS011;32206;51.446;6.792;2023-09-08T10:43:11;5.00;;;2.80;;
46491;SDS011;32206;51.446;6.792;2023-09-08T10:45:36;3.92;;;2.53;;
46491;SDS011;32206;51.446;6.792;2023-09-08T10:48:04;4.93;;;2.45;;
46491;SDS011;32206;51.446;6.792;2023-09-08T10:50:32;2.80;;;2.53;;
46491;SDS011;32206;51.446;6.792;2023-09-08T10:53:13;3.20;;;2.70;;
46491;SDS011;32206;51.446;6.792;2023-09-08T10:55:43;5.53;;;2.17;;
46491;SDS011;32206;51.446;6.792;2023-09-08T10:58:51;7.90;;;2.15;;
46491;SDS011;32206;51.446;6.792;2023-09-08T11:01:18;8.35;;;2.72;;
46491;SDS011;32206;51.446;6.792;2023-09-08T11:03:51;3.58;;;2.67;;
46491;SDS011;32206;51.446;6.792;2023-09-08T11:06:18;2.83;;;2.25;;
46491;SDS011;32206;51.446;6.792;2023-09-08T11:08:44;4.53;;;2.25;;
46491;SDS011;32206;51.446;6.792;2023-09-08T11:11:14;3.45;;;2.17;;
46491;SDS011;32206;51.446;6.792;2023-09-08T11:16:29;4.18;;;2.45;;
46491;SDS011;32206;51.446;6.792;2023-09-08T11:18:58;5.25;;;2.30;;
46491;SDS011;32206;51.446;6.792;2023-09-08T11:21:23;3.13;;;2.28;;
46491;SDS011;32206;51.446;6.792;2023-09-08T11:23:49;7.25;;;2.47;;
46491;SDS011;32206;51.446;6.792;2023-09-08T11:26:15;6.53;;;2.65;;
46491;SDS011;32206;51.446;6.792;2023-09-08T11:28:41;4.30;;;2.28;;
46491;SDS011;32206;51.446;6.792;2023-09-08T11:31:07;2.72;;;2.42;;
46491;SDS011;32206;51.446;6.792;2023-09-08T11:33:36;3.40;;;2.30;;
46491;SDS011;32206;51.446;6.792;2023-09-08T11:36:10;3.78;;;2.30;;
46491;SDS011;32206;51.446;6.792;2023-09-08T11:38:39;4.30;;;2.95;;
46491;SDS011;32206;51.446;6.792;2023-09-08T11:41:06;3.45;;;2.53;;
46491;SDS011;32206;51.446;6.792;2023-09-08T11:43:31;2.50;;;2.30;;
46491;SDS011;32206;51.446;6.792;2023-09-08T11:46:00;3.95;;;2.67;;
46491;SDS011;32206;51.446;6.792;2023-09-08T11:48:25;4.43;;;2.50;;
46491;SDS011;32206;51.446;6.792;2023-09-08T11:50:55;3.70;;;2.40;;
46491;SDS011;32206;51.446;6.792;2023-09-08T11:53:21;3.08;;;2.53;;
46491;SDS011;32206;51.446;6.792;2023-09-08T11:55:48;5.28;;;2.45;;
46491;SDS011;32206;51.446;6.792;2023-09-08T11:58:14;5.03;;;2.42;;
46491;SDS011;32206;51.446;6.792;2023-09-08T12:00:40;5.05;;;2.47;;
46491;SDS011;32206;51.446;6.792;2023-09-08T12:03:13;5.68;;;2.25;;
46491;SDS011;32206;51.446;6.792;2023-09-08T12:05:40;4.38;;;2.60;;
46491;SDS011;32206;51.446;6.792;2023-09-08T12:08:07;5.78;;;2.17;;
46491;SDS011;32206;51.446;6.792;2023-09-08T12:10:40;3.13;;;2.08;;
46491;SDS011;32206;51.446;6.792;2023-09-08T12:13:06;5.57;;;2.95;;
46491;SDS011;32206;51.446;6.792;2023-09-08T12:18:04;5.88;;;3.00;;
46491;SDS011;32206;51.446;6.792;2023-09-08T12:20:31;5.93;;;2.35;;
46491;SDS011;32206;51.446;6.792;2023-09-08T12:23:01;5.40;;;2.30;;
46491;SDS011;32206;51.446;6.792;2023-09-08T12:25:28;2.40;;;2.30;;
46491;SDS011;32206;51.446;6.792;2023-09-08T12:27:56;3.28;;;2.85;;
46491;SDS011;32206;51.446;6.792;2023-09-08T12:30:23;4.65;;;2.50;;
46491;SDS011;32206;51.446;6.792;2023-09-08T12:32:57;2.70;;;2.30;;
46491;SDS011;32206;51.446;6.792;2023-09-08T12:35:24;2.38;;;2.17;;
46491;SDS011;32206;51.446;6.792;2023-09-08T12:38:08;3.67;;;1.88;;
46491;SDS011;32206;51.446;6.792;2023-09-08T12:40:34;2.85;;;2.63;;
46491;SDS011;32206;51.446;6.792;2023-09-08T12:43:01;4.88;;;2.30;;
46491;SDS011;32206;51.446;6.792;2023-09-08T12:48:49;3.10;;;2.80;;
46491;SDS011;32206;51.446;6.792;2023-09-08T12:51:15;8.30;;;2.67;;
46491;SDS011;32206;51.446;6.792;2023-09-08T12:53:41;2.38;;;2.15;;
46491;SDS011;32206;51.446;6.792;2023-09-08T12:56:06;4.15;;;2.25;;
46491;SDS011;32206;51.446;6.792;2023-09-08T12:58:32;2.33;;;2.13;;
46491;SDS011;32206;51.446;6.792;2023-09-08T13:00:58;5.57;;;2.13;;
46491;SDS011;32206;51.446;6.792;2023-09-08T13:03:24;6.38;;;2.83;;
46491;SDS011;32206;51.446;6.792;2023-09-08T13:05:50;2.40;;;2.20;;
46491;SDS011;32206;51.446;6.792;2023-09-08T13:08:15;2.60;;;2.22;;
46491;SDS011;32206;51.446;6.792;2023-09-08T13:14:03;7.20;;;2.53;;
46491;SDS011;32206;51.446;6.792;2023-09-08T13:16:28;3.88;;;2.60;;
46491;SDS011;32206;51.446;6.792;2023-09-08T13:18:54;5.82;;;2.35;;
46491;SDS011;32206;51.446;6.792;2023-09-08T13:21:20;5.70;;;2.50;;
46491;SDS011;32206;51.446;6.792;2023-09-08T13:23:46;3.53;;;2.35;;
46491;SDS011;32206;51.446;6.792;2023-09-08T13:26:11;5.82;;;2.38;;
46491;SDS011;32206;51.446;6.792;2023-09-08T13:28:37;6.18;;;2.63;;
46491;SDS011;32206;51.446;6.792;2023-09-08T13:31:03;5.97;;;3.53;;
46491;SDS011;32206;51.446;6.792;2023-09-08T13:33:28;8.43;;;2.35;;
46491;SDS011;32206;51.446;6.792;2023-09-08T13:35:54;8.93;;;2.17;;
46491;SDS011;32206;51.446;6.792;2023-09-08T13:38:20;8.55;;;2.65;;
46491;SDS011;32206;51.446;6.792;2023-09-08T13:40:45;4.00;;;2.35;;
46491;SDS011;32206;51.446;6.792;2023-09-08T13:43:11;7.25;;;2.25;;
46491;SDS011;32206;51.446;6.792;2023-09-08T13:45:37;6.88;;;2.42;;
46491;SDS011;32206;51.446;6.792;2023-09-08T13:48:02;2.50;;;2.30;;
46491;SDS011;32206;51.446;6.792;2023-09-08T13:50:31;4.28;;;2.60;;
46491;SDS011;32206;51.446;6.792;2023-09-08T13:52:56;3.80;;;2.40;;
46491;SDS011;32206;51.446;6.792;2023-09-08T13:55:22;3.47;;;2.50;;
46491;SDS011;32206;51.446;6.792;2023-09-08T13:57:49;8.55;;;5.45;;
46491;SDS011;32206;51.446;6.792;2023-09-08T14:00:15;4.18;;;2.63;;
46491;SDS011;32206;51.446;6.792;2023-09-08T14:02:42;6.38;;;2.38;;
46491;SDS011;32206;51.446;6.792;2023-09-08T14:05:08;4.88;;;2.72;;
46491;SDS011;32206;51.446;6.792;2023-09-08T14:07:34;3.50;;;2.20;;
46491;SDS011;32206;51.446;6.792;2023-09-08T14:10:00;4.38;;;2.70;;
46491;SDS011;32206;51.446;6.792;2023-09-08T14:12:26;5.03;;;3.10;;
46491;SDS011;32206;51.446;6.792;2023-09-08T14:14:52;2.97;;;2.33;;
46491;SDS011;32206;51.446;6.792;2023-09-08T14:17:17;4.82;;;2.33;;
46491;SDS011;32206;51.446;6.792;2023-09-08T14:19:43;7.45;;;3.08;;
46491;SDS011;32206;51.446;6.792;2023-09-08T14:22:09;5.35;;;2.45;;
46491;SDS011;32206;51.446;6.792;2023-09-08T14:24:34;5.60;;;2.63;;
46491;SDS011;32206;51.446;6.792;2023-09-08T14:27:00;4.90;;;2.90;;
46491;SDS011;32206;51.446;6.792;2023-09-08T14:36:10;6.40;;;2.60;;
46491;SDS011;32206;51.446;6.792;2023-09-08T14:38:36;5.30;;;3.20;;
46491;SDS011;32206;51.446;6.792;2023-09-08T14:41:01;5.50;;;2.80;;
46491;SDS011;32206;51.446;6.792;2023-09-08T14:43:28;7.47;;;2.88;;
46491;SDS011;32206;51.446;6.792;2023-09-08T14:52:39;4.07;;;2.47;;
46491;SDS011;32206;51.446;6.792;2023-09-08T14:55:06;6.70;;;2.85;;
46491;SDS011;32206;51.446;6.792;2023-09-08T14:57:32;2.60;;;2.15;;
46491;SDS011;32206;51.446;6.792;2023-09-08T14:59:58;2.63;;;2.42;;
46491;SDS011;32206;51.446;6.792;2023-09-08T15:02:23;4.00;;;2.40;;
46491;SDS011;32206;51.446;6.792;2023-09-08T15:04:49;5.78;;;2.50;;
46491;SDS011;32206;51.446;6.792;2023-09-08T15:07:14;7.90;;;2.80;;
46491;SDS011;32206;51.446;6.792;2023-09-08T15:09:40;7.82;;;2.85;;
46491;SDS011;32206;51.446;6.792;2023-09-08T15:12:06;4.60;;;3.00;;
46491;SDS011;32206;51.446;6.792;2023-09-08T15:14:31;9.10;;;2.92;;
46491;SDS011;32206;51.446;6.792;2023-09-08T15:16:57;5.72;;;2.55;;
46491;SDS011;32206;51.446;6.792;2023-09-08T15:19:22;5.47;;;2.63;;
46491;SDS011;32206;51.446;6.792;2023-09-08T15:21:48;5.28;;;2.83;;
46491;SDS011;32206;51.446;6.792;2023-09-08T15:24:14;4.15;;;2.70;;
46491;SDS011;32206;51.446;6.792;2023-09-08T15:26:40;4.90;;;2.90;;
46491;SDS011;32206;51.446;6.792;2023-09-08T15:29:05;8.63;;;3.88;;
46491;SDS011;32206;51.446;6.792;2023-09-08T15:31:31;11.60;;;6.22;;
46491;SDS011;32206;51.446;6.792;2023-09-08T15:33:57;6.88;;;3.45;;
46491;SDS011;32206;51.446;6.792;2023-09-08T15:36:23;8.18;;;4.40;;
46491;SDS011;32206;51.446;6.792;2023-09-08T15:38:48;5.15;;;3.78;;
46491;SDS011;32206;51.446;6.792;2023-09-08T15:41:16;7.97;;;3.63;;
46491;SDS011;32206;51.446;6.792;2023-09-08T15:43:44;7.18;;;3.38;;
46491;SDS011;32206;51.446;6.792;2023-09-08T15:46:11;7.40;;;3.25;;
46491;SDS011;32206;51.446;6.792;2023-09-08T15:48:37;13.32;;;3.88;;
46491;SDS011;32206;51.446;6.792;2023-09-08T15:51:03;12.18;;;4.50;;
46491;SDS011;32206;51.446;6.792;2023-09-08T15:53:30;9.20;;;4.13;;
46491;SDS011;32206;51.446;6.792;2023-09-08T15:55:56;8.38;;;3.60;;
46491;SDS011;32206;51.446;6.792;2023-09-08T15:58:22;5.00;;;2.67;;
46491;SDS011;32206;51.446;6.792;2023-09-08T16:00:48;6.50;;;3.22;;
46491;SDS011;32206;51.446;6.792;2023-09-08T16:03:14;8.43;;;6.70;;
46491;SDS011;32206;51.446;6.792;2023-09-08T16:09:01;8.00;;;3.67;;
46491;SDS011;32206;51.446;6.792;2023-09-08T16:11:29;7.65;;;3.13;;
46491;SDS011;32206;51.446;6.792;2023-09-08T16:13:54;5.57;;;3.22;;
46491;SDS011;32206;51.446;6.792;2023-09-08T16:16:20;3.78;;;2.60;;
46491;SDS011;32206;51.446;6.792;2023-09-08T16:18:45;9.32;;;3.63;;
46491;SDS011;32206;51.446;6.792;2023-09-08T16:21:11;4.53;;;2.95;;
46491;SDS011;32206;51.446;6.792;2023-09-08T16:23:36;4.85;;;3.25;;
46491;SDS011;32206;51.446;6.792;2023-09-08T16:26:02;6.13;;;4.10;;
46491;SDS011;32206;51.446;6.792;2023-09-08T16:28:28;8.70;;;3.78;;
46491;SDS011;32206;51.446;6.792;2023-09-08T16:30:53;6.50;;;3.83;;
46491;SDS011;32206;51.446;6.792;2023-09-08T16:33:19;7.82;;;4.30;;
46491;SDS011;32206;51.446;6.792;2023-09-08T16:35:44;6.97;;;3.58;;
46491;SDS011;32206;51.446;6.792;2023-09-08T16:38:10;9.32;;;3.50;;
46491;SDS011;32206;51.446;6.792;2023-09-08T16:40:37;10.23;;;3.63;;
46491;SDS011;32206;51.446;6.792;2023-09-08T16:43:04;5.88;;;3.17;;
46491;SDS011;32206;51.446;6.792;2023-09-08T16:45:30;4.30;;;2.80;;
46491;SDS011;32206;51.446;6.792;2023-09-08T16:47:56;4.30;;;3.15;;
46491;SDS011;32206;51.446;6.792;2023-09-08T16:50:22;10.77;;;2.80;;
46491;SDS011;32206;51.446;6.792;2023-09-08T16:52:48;2.75;;;2.55;;
46491;SDS011;32206;51.446;6.792;2023-09-08T16:55:14;3.97;;;3.05;;
46491;SDS011;32206;51.446;6.792;2023-09-08T16:57:39;8.45;;;3.70;;
46491;SDS011;32206;51.446;6.792;2023-09-08T17:00:06;2.95;;;2.58;;
46491;SDS011;32206;51.446;6.792;2023-09-08T17:02:36;3.33;;;2.92;;